sensor_id;sensor_type;location;lat;lon;timestamp;pressure;altitude;pressure_sealevel;temperature;humidity
20115;BME280;10218;42.874;25.320;2022-10-26T00:01:14;97506.41;;;12.27;100.00
20115;BME280;10218;42.874;25.320;2022-10-26T00:03:45;97499.53;;;12.33;100.00
20115;BME280;10218;42.874;25.320;2022-10-26T00:06:14;97511.97;;;12.57;100.00
20115;BME280;10218;42.874;25.320;2022-10-26T00:08:42;97513.78;;;12.64;100.00
20115;BME280;10218;42.874;25.320;2022-10-26T00:11:11;97518.06;;;12.42;100.00
20115;BME280;10218;42.874;25.320;2022-10-26T00:13:39;97511.75;;;12.66;100.00
20115;BME280;10218;42.874;25.320;2022-10-26T00:16:10;97516.91;;;12.37;100.00
20115;BME280;10218;42.874;25.320;2022-10-26T00:18:38;97520.91;;;12.49;100.00
20115;BME280;10218;42.874;25.320;2022-10-26T00:21:06;97523.19;;;12.21;100.00
20115;BME280;10218;42.874;25.320;2022-10-26T00:23:34;97520.81;;;12.26;100.00
20115;BME280;10218;42.874;25.320;2022-10-26T00:26:02;97522.44;;;12.35;100.00
20115;BME280;10218;42.874;25.320;2022-10-26T00:28:29;97531.09;;;12.46;100.00
20115;BME280;10218;42.874;25.320;2022-10-26T00:31:06;97528.50;;;12.60;100.00
20115;BME280;10218;42.874;25.320;2022-10-26T00:33:34;97523.87;;;12.54;100.00
20115;BME280;10218;42.874;25.320;2022-10-26T00:36:02;97528.00;;;12.34;100.00
20115;BME280;10218;42.874;25.320;2022-10-26T00:38:29;97525.13;;;12.35;100.00
20115;BME280;10218;42.874;25.320;2022-10-26T00:40:56;97527.50;;;12.30;100.00
20115;BME280;10218;42.874;25.320;2022-10-26T00:45:57;97532.78;;;12.47;100.00
20115;BME280;10218;42.874;25.320;2022-10-26T00:48:34;97531.34;;;12.67;100.00
20115;BME280;10218;42.874;25.320;2022-10-26T00:51:08;97523.25;;;12.44;100.00
20115;BME280;10218;42.874;25.320;2022-10-26T00:53:37;97514.47;;;12.58;100.00
20115;BME280;10218;42.874;25.320;2022-10-26T00:56:06;97519.38;;;12.47;100.00
20115;BME280;10218;42.874;25.320;2022-10-26T00:58:34;97518.94;;;12.35;100.00
20115;BME280;10218;42.874;25.320;2022-10-26T01:01:01;97520.53;;;12.52;100.00
20115;BME280;10218;42.874;25.320;2022-10-26T01:03:29;97511.28;;;12.55;100.00
20115;BME280;10218;42.874;25.320;2022-10-26T01:05:57;97506.00;;;12.47;100.00
20115;BME280;10218;42.874;25.320;2022-10-26T01:08:25;97511.72;;;12.43;100.00
20115;BME280;10218;42.874;25.320;2022-10-26T01:10:56;97514.28;;;12.60;100.00
20115;BME280;10218;42.874;25.320;2022-10-26T01:13:27;97502.06;;;12.57;100.00
20115;BME280;10218;42.874;25.320;2022-10-26T01:16:08;97512.12;;;12.86;100.00
20115;BME280;10218;42.874;25.320;2022-10-26T01:21:57;97515.56;;;12.72;100.00
20115;BME280;10218;42.874;25.320;2022-10-26T01:25:00;97519.25;;;12.71;100.00
20115;BME280;10218;42.874;25.320;2022-10-26T01:27:31;97524.81;;;12.92;100.00
20115;BME280;10218;42.874;25.320;2022-10-26T01:30:26;97516.56;;;13.24;100.00
20115;BME280;10218;42.874;25.320;2022-10-26T01:35:58;97521.88;;;13.99;100.00
20115;BME280;10218;42.874;25.320;2022-10-26T01:41:38;97525.59;;;12.78;100.00
20115;BME280;10218;42.874;25.320;2022-10-26T01:44:16;97524.97;;;12.91;100.00
20115;BME280;10218;42.874;25.320;2022-10-26T01:46:46;97531.28;;;12.75;100.00
20115;BME280;10218;42.874;25.320;2022-10-26T01:49:19;97532.72;;;12.55;100.00
20115;BME280;10218;42.874;25.320;2022-10-26T01:51:47;97520.44;;;12.68;100.00
20115;BME280;10218;42.874;25.320;2022-10-26T01:54:15;97527.97;;;12.65;100.00
20115;BME280;10218;42.874;25.320;2022-10-26T01:56:46;97533.63;;;12.78;100.00
20115;BME280;10218;42.874;25.320;2022-10-26T02:02:12;97521.22;;;12.77;100.00
20115;BME280;10218;42.874;25.320;2022-10-26T02:07:49;97528.56;;;12.52;100.00
20115;BME280;10218;42.874;25.320;2022-10-26T02:10:47;97517.47;;;12.63;100.00
20115;BME280;10218;42.874;25.320;2022-10-26T02:18:36;97526.25;;;12.49;100.00
20115;BME280;10218;42.874;25.320;2022-10-26T02:21:12;97518.28;;;12.33;100.00
20115;BME280;10218;42.874;25.320;2022-10-26T02:23:43;97518.88;;;12.12;100.00
20115;BME280;10218;42.874;25.320;2022-10-26T02:26:13;97522.44;;;11.96;100.00
20115;BME280;10218;42.874;25.320;2022-10-26T02:28:46;97504.47;;;12.13;100.00
20115;BME280;10218;42.874;25.320;2022-10-26T02:31:15;97520.72;;;12.12;100.00
20115;BME280;10218;42.874;25.320;2022-10-26T02:33:47;97531.75;;;12.17;100.00
20115;BME280;10218;42.874;25.320;2022-10-26T02:36:24;97532.59;;;12.09;100.00
20115;BME280;10218;42.874;25.320;2022-10-26T02:38:53;97531.94;;;12.07;100.00
20115;BME280;10218;42.874;25.320;2022-10-26T02:41:24;97530.06;;;12.24;100.00
20115;BME280;10218;42.874;25.320;2022-10-26T02:43:56;97543.81;;;12.05;100.00
20115;BME280;10218;42.874;25.320;2022-10-26T02:46:26;97541.97;;;12.05;100.00
20115;BME280;10218;42.874;25.320;2022-10-26T02:48:55;97542.34;;;11.94;100.00
20115;BME280;10218;42.874;25.320;2022-10-26T02:51:37;97538.41;;;12.29;100.00
20115;BME280;10218;42.874;25.320;2022-10-26T02:54:26;97546.75;;;12.34;100.00
20115;BME280;10218;42.874;25.320;2022-10-26T02:57:01;97542.72;;;12.30;100.00
20115;BME280;10218;42.874;25.320;2022-10-26T02:59:34;97548.09;;;12.30;100.00
20115;BME280;10218;42.874;25.320;2022-10-26T03:02:03;97560.63;;;12.37;100.00
20115;BME280;10218;42.874;25.320;2022-10-26T03:04:32;97560.03;;;12.11;100.00
20115;BME280;10218;42.874;25.320;2022-10-26T03:07:01;97559.84;;;12.21;100.00
20115;BME280;10218;42.874;25.320;2022-10-26T03:09:28;97575.81;;;11.90;100.00
20115;BME280;10218;42.874;25.320;2022-10-26T03:11:55;97573.16;;;11.90;100.00
20115;BME280;10218;42.874;25.320;2022-10-26T03:14:23;97574.63;;;12.00;100.00
20115;BME280;10218;42.874;25.320;2022-10-26T03:16:50;97580.16;;;11.99;100.00
20115;BME280;10218;42.874;25.320;2022-10-26T03:19:18;97581.50;;;11.95;100.00
20115;BME280;10218;42.874;25.320;2022-10-26T03:21:46;97579.34;;;11.74;100.00
20115;BME280;10218;42.874;25.320;2022-10-26T03:24:13;97580.00;;;11.84;100.00
20115;BME280;10218;42.874;25.320;2022-10-26T03:26:40;97583.03;;;11.89;100.00
20115;BME280;10218;42.874;25.320;2022-10-26T03:29:07;97577.34;;;11.92;100.00
20115;BME280;10218;42.874;25.320;2022-10-26T03:31:34;97571.34;;;11.82;100.00
20115;BME280;10218;42.874;25.320;2022-10-26T03:34:01;97573.81;;;11.92;100.00
20115;BME280;10218;42.874;25.320;2022-10-26T03:36:30;97576.69;;;11.82;100.00
20115;BME280;10218;42.874;25.320;2022-10-26T03:38:58;97581.69;;;11.69;100.00
20115;BME280;10218;42.874;25.320;2022-10-26T03:41:25;97591.91;;;11.41;100.00
20115;BME280;10218;42.874;25.320;2022-10-26T03:43:52;97584.22;;;11.87;100.00
20115;BME280;10218;42.874;25.320;2022-10-26T03:46:20;97586.69;;;11.64;100.00
20115;BME280;10218;42.874;25.320;2022-10-26T03:48:47;97582.88;;;11.67;100.00
20115;BME280;10218;42.874;25.320;2022-10-26T03:51:14;97591.56;;;11.85;100.00
20115;BME280;10218;42.874;25.320;2022-10-26T03:53:42;97590.22;;;11.89;100.00
20115;BME280;10218;42.874;25.320;2022-10-26T03:56:10;97596.41;;;11.65;100.00
20115;BME280;10218;42.874;25.320;2022-10-26T03:58:38;97606.28;;;11.65;100.00
20115;BME280;10218;42.874;25.320;2022-10-26T04:01:05;97601.25;;;11.45;100.00
20115;BME280;10218;42.874;25.320;2022-10-26T04:03:32;97604.94;;;11.44;100.00
20115;BME280;10218;42.874;25.320;2022-10-26T04:06:00;97611.97;;;11.45;100.00
20115;BME280;10218;42.874;25.320;2022-10-26T04:08:27;97604.94;;;11.36;100.00
20115;BME280;10218;42.874;25.320;2022-10-26T04:10:54;97616.94;;;11.16;100.00
20115;BME280;10218;42.874;25.320;2022-10-26T04:13:21;97609.25;;;11.13;100.00
20115;BME280;10218;42.874;25.320;2022-10-26T04:15:48;97608.94;;;11.24;100.00
20115;BME280;10218;42.874;25.320;2022-10-26T04:18:16;97611.44;;;11.26;100.00
20115;BME280;10218;42.874;25.320;2022-10-26T04:20:43;97615.28;;;11.15;100.00
20115;BME280;10218;42.874;25.320;2022-10-26T04:23:12;97615.28;;;11.39;100.00
20115;BME280;10218;42.874;25.320;2022-10-26T04:25:40;97619.00;;;11.46;100.00
20115;BME280;10218;42.874;25.320;2022-10-26T04:28:09;97619.31;;;11.27;100.00
20115;BME280;10218;42.874;25.320;2022-10-26T04:30:38;97620.66;;;11.31;100.00
20115;BME280;10218;42.874;25.320;2022-10-26T04:33:06;97624.13;;;11.24;100.00
20115;BME280;10218;42.874;25.320;2022-10-26T04:35:33;97629.31;;;11.17;100.00
20115;BME280;10218;42.874;25.320;2022-10-26T04:38:03;97622.59;;;11.05;100.00
20115;BME280;10218;42.874;25.320;2022-10-26T04:40:31;97620.28;;;11.10;100.00
20115;BME280;10218;42.874;25.320;2022-10-26T04:42:59;97616.59;;;11.19;100.00
20115;BME280;10218;42.874;25.320;2022-10-26T04:45:26;97621.66;;;11.38;100.00
20115;BME280;10218;42.874;25.320;2022-10-26T04:48:05;97626.31;;;11.20;100.00
20115;BME280;10218;42.874;25.320;2022-10-26T04:50:33;97627.16;;;11.29;100.00
20115;BME280;10218;42.874;25.320;2022-10-26T04:53:02;97633.34;;;11.29;100.00
20115;BME280;10218;42.874;25.320;2022-10-26T04:55:29;97633.72;;;11.42;100.00
20115;BME280;10218;42.874;25.320;2022-10-26T04:57:57;97637.53;;;11.32;100.00
20115;BME280;10218;42.874;25.320;2022-10-26T05:00:24;97644.00;;;10.97;100.00
20115;BME280;10218;42.874;25.320;2022-10-26T05:02:58;97645.97;;;10.95;100.00
20115;BME280;10218;42.874;25.320;2022-10-26T05:05:25;97653.84;;;10.62;100.00
20115;BME280;10218;42.874;25.320;2022-10-26T05:07:53;97649.06;;;10.74;100.00
20115;BME280;10218;42.874;25.320;2022-10-26T05:10:22;97653.31;;;10.93;100.00
20115;BME280;10218;42.874;25.320;2022-10-26T05:12:54;97661.37;;;11.01;100.00
20115;BME280;10218;42.874;25.320;2022-10-26T05:15:21;97654.69;;;11.13;100.00
20115;BME280;10218;42.874;25.320;2022-10-26T05:17:59;97663.00;;;10.94;100.00
20115;BME280;10218;42.874;25.320;2022-10-26T05:20:28;97662.69;;;10.97;100.00
20115;BME280;10218;42.874;25.320;2022-10-26T05:22:57;97665.94;;;10.75;100.00
20115;BME280;10218;42.874;25.320;2022-10-26T05:25:25;97669.06;;;10.62;100.00
20115;BME280;10218;42.874;25.320;2022-10-26T05:27:57;97669.31;;;10.77;100.00
20115;BME280;10218;42.874;25.320;2022-10-26T05:30:25;97667.00;;;10.82;100.00
20115;BME280;10218;42.874;25.320;2022-10-26T05:32:56;97670.59;;;11.06;100.00
20115;BME280;10218;42.874;25.320;2022-10-26T05:35:24;97664.47;;;10.80;100.00
20115;BME280;10218;42.874;25.320;2022-10-26T05:37:52;97676.97;;;10.71;100.00
20115;BME280;10218;42.874;25.320;2022-10-26T05:40:19;97679.44;;;11.15;100.00
20115;BME280;10218;42.874;25.320;2022-10-26T05:42:47;97680.59;;;11.12;100.00
20115;BME280;10218;42.874;25.320;2022-10-26T05:45:14;97679.91;;;11.02;100.00
20115;BME280;10218;42.874;25.320;2022-10-26T05:47:42;97679.72;;;10.96;100.00
20115;BME280;10218;42.874;25.320;2022-10-26T05:50:11;97679.94;;;11.10;100.00
20115;BME280;10218;42.874;25.320;2022-10-26T05:52:45;97689.81;;;11.18;100.00
20115;BME280;10218;42.874;25.320;2022-10-26T05:55:14;97683.66;;;11.34;100.00
20115;BME280;10218;42.874;25.320;2022-10-26T05:57:42;97688.72;;;11.53;100.00
20115;BME280;10218;42.874;25.320;2022-10-26T06:05:39;97688.09;;;12.16;100.00
20115;BME280;10218;42.874;25.320;2022-10-26T06:08:09;97691.16;;;12.68;100.00
20115;BME280;10218;42.874;25.320;2022-10-26T06:10:37;97687.03;;;12.49;100.00
20115;BME280;10218;42.874;25.320;2022-10-26T06:13:05;97693.09;;;12.90;100.00
20115;BME280;10218;42.874;25.320;2022-10-26T06:15:52;97698.03;;;13.17;100.00
20115;BME280;10218;42.874;25.320;2022-10-26T06:24:32;97709.16;;;13.68;100.00
20115;BME280;10218;42.874;25.320;2022-10-26T06:30:05;97704.78;;;14.50;100.00
20115;BME280;10218;42.874;25.320;2022-10-26T06:32:33;97703.69;;;14.74;100.00
20115;BME280;10218;42.874;25.320;2022-10-26T06:37:48;97708.22;;;16.10;100.00
20115;BME280;10218;42.874;25.320;2022-10-26T06:40:16;97714.87;;;15.36;100.00
20115;BME280;10218;42.874;25.320;2022-10-26T06:42:44;97712.38;;;15.34;100.00
20115;BME280;10218;42.874;25.320;2022-10-26T06:45:15;97712.25;;;15.57;100.00
20115;BME280;10218;42.874;25.320;2022-10-26T06:47:59;97718.03;;;15.75;100.00
20115;BME280;10218;42.874;25.320;2022-10-26T06:50:37;97711.50;;;16.27;100.00
20115;BME280;10218;42.874;25.320;2022-10-26T06:55:41;97708.28;;;16.59;100.00
20115;BME280;10218;42.874;25.320;2022-10-26T06:58:20;97719.19;;;17.14;100.00
20115;BME280;10218;42.874;25.320;2022-10-26T07:00:51;97721.41;;;17.44;100.00
20115;BME280;10218;42.874;25.320;2022-10-26T07:03:19;97711.62;;;17.37;100.00
20115;BME280;10218;42.874;25.320;2022-10-26T07:05:46;97718.41;;;17.74;100.00
20115;BME280;10218;42.874;25.320;2022-10-26T07:08:14;97721.28;;;17.59;100.00
20115;BME280;10218;42.874;25.320;2022-10-26T07:10:41;97722.22;;;17.92;100.00
20115;BME280;10218;42.874;25.320;2022-10-26T07:13:09;97719.28;;;17.94;100.00
20115;BME280;10218;42.874;25.320;2022-10-26T07:15:37;97718.34;;;18.61;100.00
20115;BME280;10218;42.874;25.320;2022-10-26T07:18:06;97724.63;;;19.39;91.92
20115;BME280;10218;42.874;25.320;2022-10-26T07:20:38;97720.59;;;18.51;96.87
20115;BME280;10218;42.874;25.320;2022-10-26T07:23:06;97724.22;;;19.48;88.98
20115;BME280;10218;42.874;25.320;2022-10-26T07:25:34;97724.75;;;19.70;82.15
20115;BME280;10218;42.874;25.320;2022-10-26T07:28:08;97714.06;;;19.75;81.58
20115;BME280;10218;42.874;25.320;2022-10-26T07:30:37;97701.66;;;20.24;73.92
20115;BME280;10218;42.874;25.320;2022-10-26T07:33:09;97709.78;;;19.92;74.43
20115;BME280;10218;42.874;25.320;2022-10-26T07:35:36;97705.06;;;20.69;70.30
20115;BME280;10218;42.874;25.320;2022-10-26T07:38:03;97695.88;;;20.70;66.17
20115;BME280;10218;42.874;25.320;2022-10-26T07:40:31;97705.69;;;21.32;64.66
20115;BME280;10218;42.874;25.320;2022-10-26T07:42:59;97705.19;;;21.71;61.76
20115;BME280;10218;42.874;25.320;2022-10-26T07:45:27;97706.87;;;22.55;57.23
20115;BME280;10218;42.874;25.320;2022-10-26T07:47:55;97692.88;;;21.21;61.10
20115;BME280;10218;42.874;25.320;2022-10-26T07:50:25;97695.03;;;22.38;55.73
20115;BME280;10218;42.874;25.320;2022-10-26T07:52:52;97697.66;;;21.01;58.86
20115;BME280;10218;42.874;25.320;2022-10-26T07:55:20;97699.00;;;21.64;57.41
20115;BME280;10218;42.874;25.320;2022-10-26T07:57:47;97707.28;;;21.40;57.44
20115;BME280;10218;42.874;25.320;2022-10-26T08:00:15;97707.81;;;21.30;56.71
20115;BME280;10218;42.874;25.320;2022-10-26T08:02:43;97700.31;;;21.62;55.92
20115;BME280;10218;42.874;25.320;2022-10-26T08:05:09;97698.59;;;22.50;53.37
20115;BME280;10218;42.874;25.320;2022-10-26T08:07:41;97701.88;;;23.57;50.95
20115;BME280;10218;42.874;25.320;2022-10-26T08:10:10;97702.75;;;22.53;52.43
20115;BME280;10218;42.874;25.320;2022-10-26T08:12:38;97704.31;;;23.07;49.97
20115;BME280;10218;42.874;25.320;2022-10-26T08:15:06;97689.16;;;23.11;51.00
20115;BME280;10218;42.874;25.320;2022-10-26T08:17:33;97696.84;;;22.68;50.85
20115;BME280;10218;42.874;25.320;2022-10-26T08:20:00;97697.31;;;23.86;49.32
20115;BME280;10218;42.874;25.320;2022-10-26T08:22:28;97692.16;;;24.63;46.62
20115;BME280;10218;42.874;25.320;2022-10-26T08:24:56;97683.56;;;25.09;45.17
20115;BME280;10218;42.874;25.320;2022-10-26T08:27:24;97690.47;;;24.95;45.05
20115;BME280;10218;42.874;25.320;2022-10-26T08:29:51;97695.78;;;24.68;45.61
20115;BME280;10218;42.874;25.320;2022-10-26T08:32:18;97688.31;;;26.28;42.54
20115;BME280;10218;42.874;25.320;2022-10-26T08:34:45;97687.09;;;27.14;41.36
20115;BME280;10218;42.874;25.320;2022-10-26T08:37:12;97698.09;;;27.61;39.73
20115;BME280;10218;42.874;25.320;2022-10-26T08:39:39;97692.41;;;26.57;40.74
20115;BME280;10218;42.874;25.320;2022-10-26T08:42:13;97695.59;;;25.90;41.80
20115;BME280;10218;42.874;25.320;2022-10-26T08:44:46;97695.50;;;25.59;42.24
20115;BME280;10218;42.874;25.320;2022-10-26T08:47:18;97701.97;;;24.64;43.97
20115;BME280;10218;42.874;25.320;2022-10-26T08:50:00;97691.75;;;25.48;43.60
20115;BME280;10218;42.874;25.320;2022-10-26T08:52:34;97694.91;;;26.59;40.86
20115;BME280;10218;42.874;25.320;2022-10-26T08:55:03;97700.81;;;27.14;40.44
20115;BME280;10218;42.874;25.320;2022-10-26T08:57:40;97703.91;;;26.86;38.74
20115;BME280;10218;42.874;25.320;2022-10-26T09:02:43;97699.97;;;29.19;35.94
20115;BME280;10218;42.874;25.320;2022-10-26T09:05:16;97704.66;;;28.43;36.29
20115;BME280;10218;42.874;25.320;2022-10-26T09:07:55;97697.75;;;28.35;35.89
20115;BME280;10218;42.874;25.320;2022-10-26T09:11:00;97694.63;;;29.63;34.98
20115;BME280;10218;42.874;25.320;2022-10-26T09:14:17;97703.81;;;29.18;35.04
20115;BME280;10218;42.874;25.320;2022-10-26T09:16:46;97697.53;;;28.72;35.54
20115;BME280;10218;42.874;25.320;2022-10-26T09:19:36;97702.47;;;28.90;35.21
20115;BME280;10218;42.874;25.320;2022-10-26T09:22:28;97702.19;;;30.85;32.18
20115;BME280;10218;42.874;25.320;2022-10-26T09:25:11;97686.91;;;30.25;32.95
20115;BME280;10218;42.874;25.320;2022-10-26T09:27:53;97691.03;;;30.27;32.46
20115;BME280;10218;42.874;25.320;2022-10-26T09:30:21;97691.44;;;28.55;34.74
20115;BME280;10218;42.874;25.320;2022-10-26T09:33:01;97687.19;;;27.30;37.68
20115;BME280;10218;42.874;25.320;2022-10-26T09:35:41;97679.69;;;27.10;36.57
20115;BME280;10218;42.874;25.320;2022-10-26T09:38:15;97688.12;;;29.34;34.15
20115;BME280;10218;42.874;25.320;2022-10-26T09:40:57;97682.38;;;29.20;33.84
20115;BME280;10218;42.874;25.320;2022-10-26T09:43:27;97697.38;;;27.34;36.15
20115;BME280;10218;42.874;25.320;2022-10-26T09:45:57;97695.44;;;29.69;32.90
20115;BME280;10218;42.874;25.320;2022-10-26T09:48:41;97684.03;;;29.01;33.49
20115;BME280;10218;42.874;25.320;2022-10-26T09:51:09;97686.00;;;29.90;32.39
20115;BME280;10218;42.874;25.320;2022-10-26T09:53:37;97685.25;;;30.24;32.46
20115;BME280;10218;42.874;25.320;2022-10-26T09:56:08;97685.97;;;28.75;33.16
20115;BME280;10218;42.874;25.320;2022-10-26T09:58:47;97683.47;;;28.23;34.66
20115;BME280;10218;42.874;25.320;2022-10-26T10:01:33;97683.72;;;30.02;32.02
20115;BME280;10218;42.874;25.320;2022-10-26T10:06:39;97669.69;;;31.11;30.68
20115;BME280;10218;42.874;25.320;2022-10-26T10:11:54;97679.78;;;32.10;28.21
20115;BME280;10218;42.874;25.320;2022-10-26T10:14:25;97678.09;;;32.52;28.22
20115;BME280;10218;42.874;25.320;2022-10-26T10:19:23;97667.56;;;29.81;31.25
20115;BME280;10218;42.874;25.320;2022-10-26T10:21:54;97668.78;;;30.86;29.90
20115;BME280;10218;42.874;25.320;2022-10-26T10:24:30;97661.97;;;30.01;31.33
20115;BME280;10218;42.874;25.320;2022-10-26T10:29:41;97654.59;;;31.27;29.52
20115;BME280;10218;42.874;25.320;2022-10-26T10:32:24;97661.22;;;29.90;30.59
20115;BME280;10218;42.874;25.320;2022-10-26T10:34:54;97653.03;;;29.70;29.69
20115;BME280;10218;42.874;25.320;2022-10-26T10:39:56;97667.59;;;30.25;30.07
20115;BME280;10218;42.874;25.320;2022-10-26T10:42:28;97666.16;;;33.21;26.52
20115;BME280;10218;42.874;25.320;2022-10-26T10:44:58;97666.09;;;32.24;27.42
20115;BME280;10218;42.874;25.320;2022-10-26T10:47:31;97657.88;;;31.76;27.75
20115;BME280;10218;42.874;25.320;2022-10-26T10:50:06;97659.50;;;31.59;27.59
20115;BME280;10218;42.874;25.320;2022-10-26T10:52:35;97650.50;;;29.79;29.51
20115;BME280;10218;42.874;25.320;2022-10-26T11:00:43;97649.09;;;32.49;26.27
20115;BME280;10218;42.874;25.320;2022-10-26T11:06:18;97642.44;;;31.28;26.26
20115;BME280;10218;42.874;25.320;2022-10-26T11:09:02;97639.75;;;28.98;28.89
20115;BME280;10218;42.874;25.320;2022-10-26T11:11:41;97635.22;;;31.32;27.29
20115;BME280;10218;42.874;25.320;2022-10-26T11:14:15;97633.56;;;31.97;26.21
20115;BME280;10218;42.874;25.320;2022-10-26T11:16:46;97628.22;;;30.58;27.42
20115;BME280;10218;42.874;25.320;2022-10-26T11:21:54;97625.38;;;32.81;25.38
20115;BME280;10218;42.874;25.320;2022-10-26T11:30:12;97627.16;;;33.18;24.83
20115;BME280;10218;42.874;25.320;2022-10-26T11:32:52;97631.44;;;31.70;25.81
20115;BME280;10218;42.874;25.320;2022-10-26T11:41:12;97617.75;;;30.84;27.84
20115;BME280;10218;42.874;25.320;2022-10-26T11:43:59;97620.34;;;30.75;27.16
20115;BME280;10218;42.874;25.320;2022-10-26T11:46:40;97614.78;;;31.33;27.12
20115;BME280;10218;42.874;25.320;2022-10-26T11:52:24;97618.81;;;29.81;27.68
20115;BME280;10218;42.874;25.320;2022-10-26T11:55:01;97615.19;;;31.88;26.27
20115;BME280;10218;42.874;25.320;2022-10-26T11:57:32;97609.13;;;31.43;26.51
20115;BME280;10218;42.874;25.320;2022-10-26T12:00:05;97608.41;;;33.83;23.61
20115;BME280;10218;42.874;25.320;2022-10-26T12:02:39;97601.09;;;31.23;26.19
20115;BME280;10218;42.874;25.320;2022-10-26T12:05:31;97597.12;;;30.13;27.03
20115;BME280;10218;42.874;25.320;2022-10-26T12:08:07;97598.44;;;29.13;28.74
20115;BME280;10218;42.874;25.320;2022-10-26T12:10:49;97613.53;;;31.87;25.95
20115;BME280;10218;42.874;25.320;2022-10-26T12:13:26;97613.31;;;31.17;26.46
20115;BME280;10218;42.874;25.320;2022-10-26T12:21:09;97607.94;;;29.56;27.27
20115;BME280;10218;42.874;25.320;2022-10-26T12:33:58;97592.87;;;32.86;24.64
20115;BME280;10218;42.874;25.320;2022-10-26T12:39:44;97604.59;;;31.52;25.39
20115;BME280;10218;42.874;25.320;2022-10-26T12:52:55;97610.81;;;32.24;24.33
20115;BME280;10218;42.874;25.320;2022-10-26T13:01:48;97603.62;;;31.43;25.89
20115;BME280;10218;42.874;25.320;2022-10-26T13:07:16;97612.84;;;32.83;23.94
20115;BME280;10218;42.874;25.320;2022-10-26T13:09:59;97612.38;;;32.95;23.51
20115;BME280;10218;42.874;25.320;2022-10-26T13:12:36;97612.41;;;30.97;25.36
20115;BME280;10218;42.874;25.320;2022-10-26T13:15:38;97616.88;;;31.41;24.71
20115;BME280;10218;42.874;25.320;2022-10-26T13:20:35;97611.47;;;31.78;24.84
20115;BME280;10218;42.874;25.320;2022-10-26T13:23:18;97617.75;;;33.32;23.10
20115;BME280;10218;42.874;25.320;2022-10-26T13:33:58;97621.03;;;32.23;23.32
20115;BME280;10218;42.874;25.320;2022-10-26T13:39:29;97611.91;;;32.23;23.48
20115;BME280;10218;42.874;25.320;2022-10-26T13:41:58;97619.81;;;30.00;24.62
20115;BME280;10218;42.874;25.320;2022-10-26T13:44:40;97629.22;;;27.73;26.60
20115;BME280;10218;42.874;25.320;2022-10-26T13:47:21;97621.13;;;30.52;24.53
20115;BME280;10218;42.874;25.320;2022-10-26T13:49:54;97625.53;;;27.42;27.38
20115;BME280;10218;42.874;25.320;2022-10-26T13:52:31;97627.16;;;29.71;25.18
20115;BME280;10218;42.874;25.320;2022-10-26T13:55:02;97615.25;;;30.58;24.76
20115;BME280;10218;42.874;25.320;2022-10-26T13:57:42;97620.09;;;31.00;24.26
20115;BME280;10218;42.874;25.320;2022-10-26T14:00:20;97625.34;;;31.26;23.89
20115;BME280;10218;42.874;25.320;2022-10-26T14:02:53;97631.72;;;29.96;25.20
20115;BME280;10218;42.874;25.320;2022-10-26T14:05:27;97638.94;;;29.82;25.62
20115;BME280;10218;42.874;25.320;2022-10-26T14:08:17;97641.34;;;29.93;26.02
20115;BME280;10218;42.874;25.320;2022-10-26T14:10:47;97636.47;;;30.58;25.01
20115;BME280;10218;42.874;25.320;2022-10-26T14:13:22;97632.66;;;29.71;26.17
20115;BME280;10218;42.874;25.320;2022-10-26T14:15:53;97650.72;;;30.36;25.72
20115;BME280;10218;42.874;25.320;2022-10-26T14:18:28;97652.84;;;30.78;25.16
20115;BME280;10218;42.874;25.320;2022-10-26T14:20:59;97645.22;;;29.92;25.80
20115;BME280;10218;42.874;25.320;2022-10-26T14:23:34;97645.50;;;29.11;26.39
20115;BME280;10218;42.874;25.320;2022-10-26T14:26:05;97649.06;;;28.00;28.57
20115;BME280;10218;42.874;25.320;2022-10-26T14:28:42;97649.62;;;27.30;28.51
20115;BME280;10218;42.874;25.320;2022-10-26T14:31:13;97647.94;;;26.18;30.00
20115;BME280;10218;42.874;25.320;2022-10-26T14:33:46;97638.00;;;24.43;32.04
20115;BME280;10218;42.874;25.320;2022-10-26T14:36:14;97657.03;;;24.21;32.76
20115;BME280;10218;42.874;25.320;2022-10-26T14:38:45;97655.88;;;23.61;33.69
20115;BME280;10218;42.874;25.320;2022-10-26T14:41:15;97656.75;;;23.26;36.35
20115;BME280;10218;42.874;25.320;2022-10-26T14:43:43;97666.03;;;23.94;33.71
20115;BME280;10218;42.874;25.320;2022-10-26T14:46:15;97660.37;;;23.67;34.11
20115;BME280;10218;42.874;25.320;2022-10-26T14:48:57;97664.53;;;22.94;35.17
20115;BME280;10218;42.874;25.320;2022-10-26T14:51:34;97668.19;;;22.53;36.68
20115;BME280;10218;42.874;25.320;2022-10-26T14:54:03;97662.59;;;22.37;36.49
20115;BME280;10218;42.874;25.320;2022-10-26T14:56:38;97667.13;;;22.01;36.84
20115;BME280;10218;42.874;25.320;2022-10-26T14:59:27;97672.50;;;22.08;36.51
20115;BME280;10218;42.874;25.320;2022-10-26T15:01:57;97669.31;;;22.23;36.52
20115;BME280;10218;42.874;25.320;2022-10-26T15:04:37;97680.12;;;21.99;37.19
20115;BME280;10218;42.874;25.320;2022-10-26T15:09:42;97669.22;;;21.40;38.97
20115;BME280;10218;42.874;25.320;2022-10-26T15:12:35;97671.59;;;21.18;39.25
20115;BME280;10218;42.874;25.320;2022-10-26T15:17:56;97678.31;;;21.09;39.25
20115;BME280;10218;42.874;25.320;2022-10-26T15:20:25;97686.84;;;20.76;40.03
20115;BME280;10218;42.874;25.320;2022-10-26T15:22:55;97680.00;;;21.10;40.56
20115;BME280;10218;42.874;25.320;2022-10-26T15:25:28;97689.41;;;20.89;41.10
20115;BME280;10218;42.874;25.320;2022-10-26T15:36:21;97713.47;;;20.04;42.72
20115;BME280;10218;42.874;25.320;2022-10-26T15:38:50;97721.56;;;19.80;43.25
20115;BME280;10218;42.874;25.320;2022-10-26T15:41:34;97720.97;;;19.71;43.47